sensor_id;sensor_type;location;lat;lon;timestamp;P1;durP1;ratioP1;P2;durP2;ratioP2
67597;SDS011;62026;39.230;9.122;2022-12-29T00:02:19;25.98;;;12.73;;
67597;SDS011;62026;39.230;9.122;2022-12-29T00:04:44;21.88;;;11.57;;
67597;SDS011;62026;39.230;9.122;2022-12-29T00:07:11;21.27;;;11.18;;
67597;SDS011;62026;39.230;9.122;2022-12-29T00:09:36;19.55;;;11.23;;
67597;SDS011;62026;39.230;9.122;2022-12-29T00:12:03;18.60;;;10.45;;
67597;SDS011;62026;39.230;9.122;2022-12-29T00:14:30;18.35;;;9.55;;
67597;SDS011;62026;39.230;9.122;2022-12-29T00:17:14;25.38;;;10.20;;
67597;SDS011;62026;39.230;9.122;2022-12-29T00:19:40;20.27;;;9.75;;
67597;SDS011;62026;39.230;9.122;2022-12-29T00:22:25;25.50;;;9.68;;
67597;SDS011;62026;39.230;9.122;2022-12-29T00:25:11;20.35;;;9.73;;
67597;SDS011;62026;39.230;9.122;2022-12-29T00:27:57;22.20;;;8.48;;
67597;SDS011;62026;39.230;9.122;2022-12-29T00:30:42;19.25;;;8.38;;
67597;SDS011;62026;39.230;9.122;2022-12-29T00:33:31;19.48;;;8.18;;
67597;SDS011;62026;39.230;9.122;2022-12-29T00:39:15;20.45;;;8.73;;
67597;SDS011;62026;39.230;9.122;2022-12-29T00:42:02;23.02;;;8.43;;
67597;SDS011;62026;39.230;9.122;2022-12-29T00:44:51;17.02;;;7.60;;
67597;SDS011;62026;39.230;9.122;2022-12-29T00:47:17;16.88;;;8.32;;
67597;SDS011;62026;39.230;9.122;2022-12-29T00:49:43;14.20;;;7.47;;
67597;SDS011;62026;39.230;9.122;2022-12-29T00:52:10;19.17;;;7.25;;
67597;SDS011;62026;39.230;9.122;2022-12-29T00:54:38;16.25;;;7.55;;
67597;SDS011;62026;39.230;9.122;2022-12-29T00:57:07;13.80;;;7.32;;
67597;SDS011;62026;39.230;9.122;2022-12-29T00:59:38;14.38;;;6.93;;
67597;SDS011;62026;39.230;9.122;2022-12-29T01:02:06;13.73;;;7.07;;
67597;SDS011;62026;39.230;9.122;2022-12-29T01:04:34;12.45;;;6.82;;
67597;SDS011;62026;39.230;9.122;2022-12-29T01:07:00;13.95;;;6.97;;
67597;SDS011;62026;39.230;9.122;2022-12-29T01:09:27;16.48;;;6.43;;
67597;SDS011;62026;39.230;9.122;2022-12-29T01:12:11;12.43;;;7.18;;
67597;SDS011;62026;39.230;9.122;2022-12-29T01:14:38;14.38;;;6.85;;
67597;SDS011;62026;39.230;9.122;2022-12-29T01:17:04;16.88;;;7.47;;
67597;SDS011;62026;39.230;9.122;2022-12-29T01:19:31;12.98;;;7.38;;
67597;SDS011;62026;39.230;9.122;2022-12-29T01:21:57;14.25;;;7.20;;
67597;SDS011;62026;39.230;9.122;2022-12-29T01:24:23;15.25;;;6.85;;
67597;SDS011;62026;39.230;9.122;2022-12-29T01:26:51;15.23;;;8.02;;
67597;SDS011;62026;39.230;9.122;2022-12-29T01:29:17;15.77;;;7.47;;
67597;SDS011;62026;39.230;9.122;2022-12-29T01:31:44;14.88;;;7.40;;
67597;SDS011;62026;39.230;9.122;2022-12-29T01:34:10;14.32;;;7.30;;
67597;SDS011;62026;39.230;9.122;2022-12-29T01:36:37;15.18;;;7.22;;
67597;SDS011;62026;39.230;9.122;2022-12-29T01:39:03;14.30;;;7.30;;
67597;SDS011;62026;39.230;9.122;2022-12-29T01:41:29;15.05;;;6.90;;
67597;SDS011;62026;39.230;9.122;2022-12-29T01:43:56;17.50;;;7.53;;
67597;SDS011;62026;39.230;9.122;2022-12-29T01:46:50;11.13;;;6.47;;
67597;SDS011;62026;39.230;9.122;2022-12-29T01:49:18;16.83;;;7.75;;
67597;SDS011;62026;39.230;9.122;2022-12-29T01:51:57;18.13;;;7.50;;
67597;SDS011;62026;39.230;9.122;2022-12-29T01:57:15;15.77;;;7.78;;
67597;SDS011;62026;39.230;9.122;2022-12-29T01:59:58;16.23;;;7.00;;
67597;SDS011;62026;39.230;9.122;2022-12-29T02:02:43;11.37;;;6.20;;
67597;SDS011;62026;39.230;9.122;2022-12-29T02:05:25;14.88;;;7.13;;
67597;SDS011;62026;39.230;9.122;2022-12-29T02:08:11;12.80;;;6.53;;
67597;SDS011;62026;39.230;9.122;2022-12-29T02:10:38;12.45;;;7.10;;
67597;SDS011;62026;39.230;9.122;2022-12-29T02:13:06;12.20;;;6.78;;
67597;SDS011;62026;39.230;9.122;2022-12-29T02:27:48;17.23;;;7.60;;
67597;SDS011;62026;39.230;9.122;2022-12-29T02:36:45;11.85;;;6.43;;
67597;SDS011;62026;39.230;9.122;2022-12-29T02:39:44;11.80;;;6.47;;
67597;SDS011;62026;39.230;9.122;2022-12-29T02:50:51;15.20;;;6.43;;
67597;SDS011;62026;39.230;9.122;2022-12-29T02:53:26;14.35;;;6.75;;
67597;SDS011;62026;39.230;9.122;2022-12-29T02:56:17;11.00;;;6.18;;
67597;SDS011;62026;39.230;9.122;2022-12-29T02:58:43;16.15;;;6.65;;
67597;SDS011;62026;39.230;9.122;2022-12-29T03:04:31;13.43;;;6.28;;
67597;SDS011;62026;39.230;9.122;2022-12-29T03:19:32;13.65;;;6.03;;
67597;SDS011;62026;39.230;9.122;2022-12-29T03:22:08;13.35;;;5.75;;
67597;SDS011;62026;39.230;9.122;2022-12-29T03:25:04;9.68;;;5.47;;
67597;SDS011;62026;39.230;9.122;2022-12-29T03:28:01;13.68;;;5.20;;
67597;SDS011;62026;39.230;9.122;2022-12-29T03:30:40;16.10;;;5.70;;
67597;SDS011;62026;39.230;9.122;2022-12-29T03:33:12;8.00;;;4.80;;
67597;SDS011;62026;39.230;9.122;2022-12-29T03:35:42;9.40;;;5.10;;
67597;SDS011;62026;39.230;9.122;2022-12-29T03:38:16;11.00;;;4.78;;
67597;SDS011;62026;39.230;9.122;2022-12-29T03:40:48;7.90;;;4.30;;
67597;SDS011;62026;39.230;9.122;2022-12-29T03:43:26;9.05;;;4.85;;
67597;SDS011;62026;39.230;9.122;2022-12-29T03:45:54;9.85;;;4.38;;
67597;SDS011;62026;39.230;9.122;2022-12-29T03:48:19;10.95;;;4.63;;
67597;SDS011;62026;39.230;9.122;2022-12-29T03:50:47;10.65;;;4.85;;
67597;SDS011;62026;39.230;9.122;2022-12-29T03:53:14;8.85;;;3.75;;
67597;SDS011;62026;39.230;9.122;2022-12-29T03:55:41;10.77;;;4.38;;
67597;SDS011;62026;39.230;9.122;2022-12-29T03:58:10;9.48;;;4.28;;
67597;SDS011;62026;39.230;9.122;2022-12-29T04:00:50;9.32;;;4.22;;
67597;SDS011;62026;39.230;9.122;2022-12-29T04:03:17;8.43;;;3.67;;
67597;SDS011;62026;39.230;9.122;2022-12-29T04:05:43;9.88;;;4.00;;
67597;SDS011;62026;39.230;9.122;2022-12-29T04:08:09;10.98;;;4.43;;
67597;SDS011;62026;39.230;9.122;2022-12-29T04:10:36;8.88;;;3.97;;
67597;SDS011;62026;39.230;9.122;2022-12-29T04:13:04;11.50;;;4.07;;
67597;SDS011;62026;39.230;9.122;2022-12-29T04:15:30;12.98;;;4.00;;
67597;SDS011;62026;39.230;9.122;2022-12-29T04:17:56;9.48;;;3.92;;
67597;SDS011;62026;39.230;9.122;2022-12-29T04:20:23;7.85;;;3.50;;
67597;SDS011;62026;39.230;9.122;2022-12-29T04:23:08;8.90;;;3.85;;
67597;SDS011;62026;39.230;9.122;2022-12-29T04:25:35;11.20;;;3.90;;
67597;SDS011;62026;39.230;9.122;2022-12-29T04:28:01;6.97;;;3.33;;
67597;SDS011;62026;39.230;9.122;2022-12-29T04:30:40;9.60;;;3.33;;
67597;SDS011;62026;39.230;9.122;2022-12-29T04:33:14;9.05;;;3.40;;
67597;SDS011;62026;39.230;9.122;2022-12-29T04:35:41;9.23;;;3.50;;
67597;SDS011;62026;39.230;9.122;2022-12-29T04:38:09;8.55;;;3.30;;
67597;SDS011;62026;39.230;9.122;2022-12-29T04:40:37;6.93;;;3.38;;
67597;SDS011;62026;39.230;9.122;2022-12-29T04:43:06;7.88;;;3.58;;
67597;SDS011;62026;39.230;9.122;2022-12-29T04:45:42;6.63;;;3.10;;
67597;SDS011;62026;39.230;9.122;2022-12-29T04:48:22;7.55;;;3.35;;
67597;SDS011;62026;39.230;9.122;2022-12-29T04:51:03;5.90;;;3.13;;
67597;SDS011;62026;39.230;9.122;2022-12-29T04:53:35;7.90;;;3.10;;
67597;SDS011;62026;39.230;9.122;2022-12-29T04:56:01;6.72;;;2.92;;
67597;SDS011;62026;39.230;9.122;2022-12-29T04:58:27;6.40;;;3.03;;
67597;SDS011;62026;39.230;9.122;2022-12-29T05:00:53;5.70;;;3.05;;
67597;SDS011;62026;39.230;9.122;2022-12-29T05:03:22;6.53;;;3.13;;
67597;SDS011;62026;39.230;9.122;2022-12-29T05:05:48;7.72;;;3.20;;
67597;SDS011;62026;39.230;9.122;2022-12-29T05:08:14;8.98;;;3.53;;
67597;SDS011;62026;39.230;9.122;2022-12-29T05:10:43;7.43;;;3.45;;
67597;SDS011;62026;39.230;9.122;2022-12-29T05:13:11;8.27;;;3.05;;
67597;SDS011;62026;39.230;9.122;2022-12-29T05:15:38;12.98;;;3.67;;
67597;SDS011;62026;39.230;9.122;2022-12-29T05:18:04;8.07;;;3.22;;
67597;SDS011;62026;39.230;9.122;2022-12-29T05:20:30;7.95;;;3.33;;
67597;SDS011;62026;39.230;9.122;2022-12-29T05:22:58;7.45;;;3.38;;
67597;SDS011;62026;39.230;9.122;2022-12-29T05:25:24;10.45;;;3.42;;
67597;SDS011;62026;39.230;9.122;2022-12-29T05:27:57;8.80;;;3.58;;
67597;SDS011;62026;39.230;9.122;2022-12-29T05:30:38;6.55;;;3.10;;
67597;SDS011;62026;39.230;9.122;2022-12-29T05:33:04;11.05;;;3.55;;
67597;SDS011;62026;39.230;9.122;2022-12-29T05:35:33;6.10;;;3.17;;
67597;SDS011;62026;39.230;9.122;2022-12-29T05:37:59;7.55;;;2.72;;
67597;SDS011;62026;39.230;9.122;2022-12-29T05:40:25;6.13;;;3.03;;
67597;SDS011;62026;39.230;9.122;2022-12-29T05:42:55;8.13;;;3.42;;
67597;SDS011;62026;39.230;9.122;2022-12-29T05:45:50;11.05;;;3.20;;
67597;SDS011;62026;39.230;9.122;2022-12-29T05:48:34;7.38;;;3.25;;
67597;SDS011;62026;39.230;9.122;2022-12-29T05:51:12;10.57;;;3.38;;
67597;SDS011;62026;39.230;9.122;2022-12-29T05:53:46;6.57;;;3.03;;
67597;SDS011;62026;39.230;9.122;2022-12-29T05:56:12;11.43;;;3.17;;
67597;SDS011;62026;39.230;9.122;2022-12-29T05:58:39;7.85;;;3.10;;
67597;SDS011;62026;39.230;9.122;2022-12-29T06:01:05;8.95;;;3.13;;
67597;SDS011;62026;39.230;9.122;2022-12-29T06:03:31;10.88;;;3.47;;
67597;SDS011;62026;39.230;9.122;2022-12-29T06:05:57;9.35;;;3.45;;
67597;SDS011;62026;39.230;9.122;2022-12-29T06:08:24;8.90;;;3.00;;
67597;SDS011;62026;39.230;9.122;2022-12-29T06:10:51;7.43;;;3.33;;
67597;SDS011;62026;39.230;9.122;2022-12-29T06:13:17;8.70;;;3.25;;
67597;SDS011;62026;39.230;9.122;2022-12-29T06:15:47;5.20;;;2.95;;
67597;SDS011;62026;39.230;9.122;2022-12-29T06:18:15;8.45;;;3.50;;
67597;SDS011;62026;39.230;9.122;2022-12-29T06:20:42;5.47;;;3.10;;
67597;SDS011;62026;39.230;9.122;2022-12-29T06:23:08;15.88;;;3.80;;
67597;SDS011;62026;39.230;9.122;2022-12-29T06:25:34;9.27;;;3.78;;
67597;SDS011;62026;39.230;9.122;2022-12-29T06:28:02;7.80;;;3.08;;
67597;SDS011;62026;39.230;9.122;2022-12-29T06:30:28;8.05;;;2.90;;
67597;SDS011;62026;39.230;9.122;2022-12-29T06:32:55;9.93;;;2.88;;
67597;SDS011;62026;39.230;9.122;2022-12-29T06:35:22;10.00;;;3.13;;
67597;SDS011;62026;39.230;9.122;2022-12-29T06:37:50;8.25;;;3.15;;
67597;SDS011;62026;39.230;9.122;2022-12-29T06:40:16;5.82;;;2.80;;
67597;SDS011;62026;39.230;9.122;2022-12-29T06:43:09;6.07;;;3.28;;
67597;SDS011;62026;39.230;9.122;2022-12-29T06:45:51;9.30;;;3.67;;
67597;SDS011;62026;39.230;9.122;2022-12-29T06:48:17;7.82;;;3.63;;
67597;SDS011;62026;39.230;9.122;2022-12-29T06:50:43;9.98;;;3.38;;
67597;SDS011;62026;39.230;9.122;2022-12-29T06:53:09;12.55;;;4.20;;
67597;SDS011;62026;39.230;9.122;2022-12-29T06:55:35;9.68;;;3.95;;
67597;SDS011;62026;39.230;9.122;2022-12-29T06:58:01;12.00;;;4.50;;
67597;SDS011;62026;39.230;9.122;2022-12-29T07:00:27;10.88;;;3.85;;
67597;SDS011;62026;39.230;9.122;2022-12-29T07:02:54;13.65;;;4.00;;
67597;SDS011;62026;39.230;9.122;2022-12-29T07:05:23;9.45;;;3.70;;
67597;SDS011;62026;39.230;9.122;2022-12-29T07:07:51;13.20;;;4.35;;
67597;SDS011;62026;39.230;9.122;2022-12-29T07:10:18;10.50;;;4.35;;
67597;SDS011;62026;39.230;9.122;2022-12-29T07:12:44;9.57;;;4.00;;
67597;SDS011;62026;39.230;9.122;2022-12-29T07:15:10;10.00;;;4.00;;
67597;SDS011;62026;39.230;9.122;2022-12-29T07:17:37;9.77;;;4.10;;
67597;SDS011;62026;39.230;9.122;2022-12-29T07:20:03;7.40;;;3.88;;
67597;SDS011;62026;39.230;9.122;2022-12-29T07:22:30;13.65;;;4.10;;
67597;SDS011;62026;39.230;9.122;2022-12-29T07:24:56;9.88;;;4.18;;
67597;SDS011;62026;39.230;9.122;2022-12-29T07:27:22;8.15;;;4.40;;
67597;SDS011;62026;39.230;9.122;2022-12-29T07:29:48;11.57;;;3.70;;
67597;SDS011;62026;39.230;9.122;2022-12-29T07:32:13;9.80;;;4.50;;
67597;SDS011;62026;39.230;9.122;2022-12-29T07:34:39;13.13;;;4.35;;
67597;SDS011;62026;39.230;9.122;2022-12-29T07:37:05;8.10;;;4.18;;
67597;SDS011;62026;39.230;9.122;2022-12-29T07:39:31;9.18;;;4.35;;
67597;SDS011;62026;39.230;9.122;2022-12-29T07:41:57;9.32;;;4.78;;
67597;SDS011;62026;39.230;9.122;2022-12-29T07:44:24;13.75;;;4.68;;
67597;SDS011;62026;39.230;9.122;2022-12-29T07:47:09;17.65;;;5.00;;
67597;SDS011;62026;39.230;9.122;2022-12-29T07:49:35;13.07;;;4.57;;
67597;SDS011;62026;39.230;9.122;2022-12-29T07:52:01;7.40;;;4.28;;
67597;SDS011;62026;39.230;9.122;2022-12-29T07:54:27;16.65;;;4.15;;
67597;SDS011;62026;39.230;9.122;2022-12-29T07:56:53;10.40;;;4.65;;
67597;SDS011;62026;39.230;9.122;2022-12-29T07:59:19;8.40;;;4.05;;
67597;SDS011;62026;39.230;9.122;2022-12-29T08:01:45;11.50;;;4.43;;
67597;SDS011;62026;39.230;9.122;2022-12-29T08:04:11;11.95;;;3.83;;
67597;SDS011;62026;39.230;9.122;2022-12-29T08:06:37;11.70;;;4.28;;
67597;SDS011;62026;39.230;9.122;2022-12-29T08:09:03;12.57;;;3.85;;
67597;SDS011;62026;39.230;9.122;2022-12-29T08:11:29;17.23;;;4.93;;
67597;SDS011;62026;39.230;9.122;2022-12-29T08:13:55;12.82;;;4.40;;
67597;SDS011;62026;39.230;9.122;2022-12-29T08:16:21;17.67;;;4.63;;
67597;SDS011;62026;39.230;9.122;2022-12-29T08:18:47;9.05;;;4.35;;
67597;SDS011;62026;39.230;9.122;2022-12-29T08:21:13;13.98;;;4.50;;
67597;SDS011;62026;39.230;9.122;2022-12-29T08:23:39;13.07;;;5.65;;
67597;SDS011;62026;39.230;9.122;2022-12-29T08:26:05;12.45;;;4.90;;
67597;SDS011;62026;39.230;9.122;2022-12-29T08:28:32;11.50;;;5.13;;
67597;SDS011;62026;39.230;9.122;2022-12-29T08:30:58;10.32;;;4.80;;
67597;SDS011;62026;39.230;9.122;2022-12-29T08:33:27;15.95;;;4.65;;
67597;SDS011;62026;39.230;9.122;2022-12-29T08:36:00;8.07;;;4.90;;
67597;SDS011;62026;39.230;9.122;2022-12-29T08:38:31;12.40;;;4.32;;
67597;SDS011;62026;39.230;9.122;2022-12-29T08:40:58;5.93;;;3.50;;
67597;SDS011;62026;39.230;9.122;2022-12-29T08:43:26;8.55;;;3.85;;
67597;SDS011;62026;39.230;9.122;2022-12-29T08:45:53;12.73;;;3.92;;
67597;SDS011;62026;39.230;9.122;2022-12-29T08:48:19;8.48;;;3.95;;
67597;SDS011;62026;39.230;9.122;2022-12-29T08:50:47;15.85;;;4.20;;
67597;SDS011;62026;39.230;9.122;2022-12-29T08:53:15;11.18;;;4.50;;
67597;SDS011;62026;39.230;9.122;2022-12-29T08:55:44;7.50;;;3.58;;
67597;SDS011;62026;39.230;9.122;2022-12-29T08:58:12;16.27;;;4.47;;
67597;SDS011;62026;39.230;9.122;2022-12-29T09:00:41;11.10;;;3.58;;
67597;SDS011;62026;39.230;9.122;2022-12-29T09:03:08;12.02;;;4.22;;
67597;SDS011;62026;39.230;9.122;2022-12-29T09:05:34;10.23;;;3.50;;
67597;SDS011;62026;39.230;9.122;2022-12-29T09:08:00;9.63;;;4.28;;
67597;SDS011;62026;39.230;9.122;2022-12-29T09:10:26;9.13;;;4.15;;
67597;SDS011;62026;39.230;9.122;2022-12-29T09:12:52;12.02;;;4.43;;
67597;SDS011;62026;39.230;9.122;2022-12-29T09:15:18;12.85;;;5.70;;
67597;SDS011;62026;39.230;9.122;2022-12-29T09:17:44;9.35;;;3.85;;
67597;SDS011;62026;39.230;9.122;2022-12-29T09:20:12;10.35;;;4.40;;
67597;SDS011;62026;39.230;9.122;2022-12-29T09:22:41;11.13;;;3.70;;
67597;SDS011;62026;39.230;9.122;2022-12-29T09:25:08;9.65;;;3.75;;
67597;SDS011;62026;39.230;9.122;2022-12-29T09:27:36;9.07;;;3.15;;
67597;SDS011;62026;39.230;9.122;2022-12-29T09:30:05;6.68;;;2.55;;
67597;SDS011;62026;39.230;9.122;2022-12-29T09:32:35;4.90;;;2.05;;
67597;SDS011;62026;39.230;9.122;2022-12-29T09:35:01;5.70;;;2.55;;
67597;SDS011;62026;39.230;9.122;2022-12-29T09:37:28;9.93;;;2.72;;
67597;SDS011;62026;39.230;9.122;2022-12-29T09:39:54;8.90;;;2.60;;
67597;SDS011;62026;39.230;9.122;2022-12-29T09:47:46;4.60;;;2.28;;
67597;SDS011;62026;39.230;9.122;2022-12-29T09:58:18;3.85;;;1.85;;
67597;SDS011;62026;39.230;9.122;2022-12-29T10:01:02;7.30;;;2.28;;
67597;SDS011;62026;39.230;9.122;2022-12-29T10:03:40;6.13;;;2.05;;
67597;SDS011;62026;39.230;9.122;2022-12-29T10:06:23;7.47;;;2.35;;
67597;SDS011;62026;39.230;9.122;2022-12-29T10:17:39;8.35;;;2.25;;
67597;SDS011;62026;39.230;9.122;2022-12-29T10:20:18;2.97;;;1.90;;
67597;SDS011;62026;39.230;9.122;2022-12-29T10:23:37;6.82;;;1.92;;
67597;SDS011;62026;39.230;9.122;2022-12-29T10:26:20;4.90;;;2.00;;
67597;SDS011;62026;39.230;9.122;2022-12-29T10:29:06;9.07;;;2.10;;
67597;SDS011;62026;39.230;9.122;2022-12-29T10:34:21;7.18;;;1.77;;
67597;SDS011;62026;39.230;9.122;2022-12-29T10:37:00;4.28;;;1.88;;
67597;SDS011;62026;39.230;9.122;2022-12-29T10:39:38;5.80;;;2.20;;
67597;SDS011;62026;39.230;9.122;2022-12-29T10:42:32;3.58;;;1.70;;
67597;SDS011;62026;39.230;9.122;2022-12-29T10:45:10;4.10;;;1.60;;
67597;SDS011;62026;39.230;9.122;2022-12-29T10:47:47;5.50;;;1.52;;
67597;SDS011;62026;39.230;9.122;2022-12-29T10:50:24;3.95;;;1.55;;
67597;SDS011;62026;39.230;9.122;2022-12-29T10:52:51;3.72;;;1.58;;
67597;SDS011;62026;39.230;9.122;2022-12-29T10:55:21;4.40;;;1.40;;
67597;SDS011;62026;39.230;9.122;2022-12-29T10:57:53;8.60;;;1.45;;
67597;SDS011;62026;39.230;9.122;2022-12-29T11:00:24;4.22;;;1.25;;
67597;SDS011;62026;39.230;9.122;2022-12-29T11:02:54;5.45;;;1.40;;
67597;SDS011;62026;39.230;9.122;2022-12-29T11:08:10;4.78;;;1.40;;
67597;SDS011;62026;39.230;9.122;2022-12-29T11:10:43;6.93;;;1.75;;
67597;SDS011;62026;39.230;9.122;2022-12-29T11:13:15;5.53;;;1.63;;
67597;SDS011;62026;39.230;9.122;2022-12-29T11:15:45;3.80;;;1.50;;
67597;SDS011;62026;39.230;9.122;2022-12-29T11:18:24;4.25;;;1.30;;
67597;SDS011;62026;39.230;9.122;2022-12-29T11:21:04;6.00;;;1.70;;
67597;SDS011;62026;39.230;9.122;2022-12-29T11:23:56;4.72;;;1.58;;
67597;SDS011;62026;39.230;9.122;2022-12-29T11:26:31;3.35;;;1.27;;
67597;SDS011;62026;39.230;9.122;2022-12-29T11:32:17;4.63;;;1.45;;
67597;SDS011;62026;39.230;9.122;2022-12-29T11:34:34;3.85;;;1.85;;
67597;SDS011;62026;39.230;9.122;2022-12-29T11:37:05;5.18;;;1.40;;
67597;SDS011;62026;39.230;9.122;2022-12-29T11:39:44;7.45;;;1.70;;
67597;SDS011;62026;39.230;9.122;2022-12-29T11:42:23;8.50;;;2.00;;
67597;SDS011;62026;39.230;9.122;2022-12-29T11:48:12;3.60;;;1.52;;
67597;SDS011;62026;39.230;9.122;2022-12-29T11:50:48;7.35;;;2.00;;
67597;SDS011;62026;39.230;9.122;2022-12-29T11:53:20;4.97;;;1.75;;
67597;SDS011;62026;39.230;9.122;2022-12-29T11:56:02;5.95;;;1.75;;
67597;SDS011;62026;39.230;9.122;2022-12-29T11:58:37;4.97;;;2.53;;
67597;SDS011;62026;39.230;9.122;2022-12-29T12:01:05;2.88;;;1.58;;
67597;SDS011;62026;39.230;9.122;2022-12-29T12:03:45;6.32;;;1.65;;
67597;SDS011;62026;39.230;9.122;2022-12-29T12:06:26;5.75;;;1.30;;
67597;SDS011;62026;39.230;9.122;2022-12-29T12:09:02;5.35;;;1.73;;
67597;SDS011;62026;39.230;9.122;2022-12-29T12:11:39;4.65;;;1.75;;
67597;SDS011;62026;39.230;9.122;2022-12-29T12:17:17;4.57;;;1.63;;
67597;SDS011;62026;39.230;9.122;2022-12-29T12:20:00;4.18;;;1.92;;
67597;SDS011;62026;39.230;9.122;2022-12-29T12:25:34;5.45;;;1.80;;
67597;SDS011;62026;39.230;9.122;2022-12-29T12:28:10;4.80;;;1.67;;
67597;SDS011;62026;39.230;9.122;2022-12-29T12:30:58;5.57;;;1.90;;
67597;SDS011;62026;39.230;9.122;2022-12-29T12:33:38;5.97;;;2.03;;
67597;SDS011;62026;39.230;9.122;2022-12-29T12:48:20;8.38;;;2.08;;
67597;SDS011;62026;39.230;9.122;2022-12-29T12:54:06;6.13;;;2.20;;
67597;SDS011;62026;39.230;9.122;2022-12-29T12:59:52;6.70;;;2.33;;
67597;SDS011;62026;39.230;9.122;2022-12-29T13:15:17;8.00;;;2.92;;
67597;SDS011;62026;39.230;9.122;2022-12-29T13:18:13;11.65;;;3.78;;
67597;SDS011;62026;39.230;9.122;2022-12-29T13:24:07;7.55;;;3.63;;
67597;SDS011;62026;39.230;9.122;2022-12-29T13:26:54;14.07;;;4.22;;
67597;SDS011;62026;39.230;9.122;2022-12-29T13:29:46;8.05;;;4.07;;
67597;SDS011;62026;39.230;9.122;2022-12-29T13:35:33;12.27;;;4.32;;
67597;SDS011;62026;39.230;9.122;2022-12-29T13:41:43;11.73;;;3.97;;
67597;SDS011;62026;39.230;9.122;2022-12-29T13:45:06;8.32;;;3.58;;
67597;SDS011;62026;39.230;9.122;2022-12-29T13:50:24;9.25;;;4.82;;
67597;SDS011;62026;39.230;9.122;2022-12-29T14:01:50;11.80;;;4.03;;
67597;SDS011;62026;39.230;9.122;2022-12-29T14:04:28;12.40;;;4.40;;
67597;SDS011;62026;39.230;9.122;2022-12-29T14:07:05;13.82;;;4.65;;
67597;SDS011;62026;39.230;9.122;2022-12-29T14:09:51;11.45;;;4.75;;
67597;SDS011;62026;39.230;9.122;2022-12-29T14:17:42;12.75;;;4.65;;
67597;SDS011;62026;39.230;9.122;2022-12-29T14:20:16;11.68;;;4.65;;
67597;SDS011;62026;39.230;9.122;2022-12-29T14:22:58;9.23;;;4.43;;
67597;SDS011;62026;39.230;9.122;2022-12-29T14:28:32;11.70;;;4.88;;
67597;SDS011;62026;39.230;9.122;2022-12-29T14:34:28;14.02;;;5.00;;
67597;SDS011;62026;39.230;9.122;2022-12-29T14:36:40;11.13;;;4.80;;
67597;SDS011;62026;39.230;9.122;2022-12-29T14:44:31;12.32;;;5.15;;
67597;SDS011;62026;39.230;9.122;2022-12-29T14:47:00;16.80;;;5.40;;
67597;SDS011;62026;39.230;9.122;2022-12-29T14:49:39;17.48;;;5.07;;
67597;SDS011;62026;39.230;9.122;2022-12-29T14:52:20;9.32;;;4.45;;
67597;SDS011;62026;39.230;9.122;2022-12-29T14:54:51;11.85;;;5.10;;
67597;SDS011;62026;39.230;9.122;2022-12-29T14:57:40;12.65;;;4.50;;
67597;SDS011;62026;39.230;9.122;2022-12-29T15:00:22;8.38;;;4.70;;
67597;SDS011;62026;39.230;9.122;2022-12-29T15:03:10;12.25;;;4.78;;
67597;SDS011;62026;39.230;9.122;2022-12-29T15:05:55;13.32;;;4.60;;
67597;SDS011;62026;39.230;9.122;2022-12-29T15:08:39;13.43;;;6.10;;
67597;SDS011;62026;39.230;9.122;2022-12-29T15:11:25;11.35;;;4.93;;
67597;SDS011;62026;39.230;9.122;2022-12-29T15:16:58;16.10;;;5.38;;
67597;SDS011;62026;39.230;9.122;2022-12-29T15:19:26;10.52;;;5.28;;
67597;SDS011;62026;39.230;9.122;2022-12-29T15:21:54;9.18;;;5.28;;
67597;SDS011;62026;39.230;9.122;2022-12-29T15:24:21;11.05;;;4.72;;
67597;SDS011;62026;39.230;9.122;2022-12-29T15:26:49;12.35;;;4.90;;
67597;SDS011;62026;39.230;9.122;2022-12-29T15:29:37;9.13;;;5.55;;
67597;SDS011;62026;39.230;9.122;2022-12-29T15:32:25;8.52;;;5.07;;
67597;SDS011;62026;39.230;9.122;2022-12-29T15:34:55;10.35;;;5.28;;
67597;SDS011;62026;39.230;9.122;2022-12-29T15:37:26;18.88;;;4.85;;
67597;SDS011;62026;39.230;9.122;2022-12-29T15:40:00;9.10;;;5.10;;
67597;SDS011;62026;39.230;9.122;2022-12-29T15:42:29;11.82;;;5.88;;
67597;SDS011;62026;39.230;9.122;2022-12-29T15:45:08;15.05;;;8.43;;
67597;SDS011;62026;39.230;9.122;2022-12-29T15:47:37;13.98;;;7.95;;
67597;SDS011;62026;39.230;9.122;2022-12-29T15:50:09;14.63;;;6.60;;
67597;SDS011;62026;39.230;9.122;2022-12-29T15:52:38;14.40;;;6.68;;
67597;SDS011;62026;39.230;9.122;2022-12-29T15:55:05;10.30;;;6.53;;
67597;SDS011;62026;39.230;9.122;2022-12-29T15:57:45;12.77;;;6.15;;
67597;SDS011;62026;39.230;9.122;2022-12-29T16:00:20;13.05;;;5.97;;
67597;SDS011;62026;39.230;9.122;2022-12-29T16:02:54;12.90;;;5.93;;
67597;SDS011;62026;39.230;9.122;2022-12-29T16:05:23;8.55;;;5.97;;
67597;SDS011;62026;39.230;9.122;2022-12-29T16:07:57;17.92;;;7.40;;
67597;SDS011;62026;39.230;9.122;2022-12-29T16:10:38;11.32;;;7.32;;
67597;SDS011;62026;39.230;9.122;2022-12-29T16:15:50;11.68;;;6.70;;
67597;SDS011;62026;39.230;9.122;2022-12-29T16:18:26;16.00;;;6.93;;
67597;SDS011;62026;39.230;9.122;2022-12-29T16:20:58;12.02;;;6.97;;
67597;SDS011;62026;39.230;9.122;2022-12-29T16:23:25;15.82;;;8.13;;
67597;SDS011;62026;39.230;9.122;2022-12-29T16:25:54;15.50;;;8.20;;
67597;SDS011;62026;39.230;9.122;2022-12-29T16:28:23;10.73;;;7.45;;
67597;SDS011;62026;39.230;9.122;2022-12-29T16:31:04;16.23;;;7.85;;
67597;SDS011;62026;39.230;9.122;2022-12-29T16:33:36;12.38;;;7.00;;
67597;SDS011;62026;39.230;9.122;2022-12-29T16:39:24;14.25;;;7.53;;
67597;SDS011;62026;39.230;9.122;2022-12-29T16:45:09;13.63;;;7.53;;
67597;SDS011;62026;39.230;9.122;2022-12-29T16:47:48;12.80;;;7.97;;
67597;SDS011;62026;39.230;9.122;2022-12-29T16:50:30;20.15;;;9.18;;
67597;SDS011;62026;39.230;9.122;2022-12-29T16:53:03;21.00;;;11.32;;
67597;SDS011;62026;39.230;9.122;2022-12-29T16:55:31;23.70;;;12.55;;
67597;SDS011;62026;39.230;9.122;2022-12-29T16:57:58;23.65;;;11.45;;
67597;SDS011;62026;39.230;9.122;2022-12-29T17:00:26;20.90;;;12.48;;
67597;SDS011;62026;39.230;9.122;2022-12-29T17:02:59;22.30;;;12.85;;
67597;SDS011;62026;39.230;9.122;2022-12-29T17:05:28;21.90;;;12.27;;
67597;SDS011;62026;39.230;9.122;2022-12-29T17:07:53;19.20;;;10.93;;
67597;SDS011;62026;39.230;9.122;2022-12-29T17:10:25;17.27;;;10.60;;
67597;SDS011;62026;39.230;9.122;2022-12-29T17:13:12;21.80;;;11.80;;
67597;SDS011;62026;39.230;9.122;2022-12-29T17:15:38;22.35;;;12.15;;
67597;SDS011;62026;39.230;9.122;2022-12-29T17:18:04;21.65;;;11.57;;
67597;SDS011;62026;39.230;9.122;2022-12-29T17:20:30;21.35;;;12.05;;
67597;SDS011;62026;39.230;9.122;2022-12-29T17:22:57;24.48;;;11.70;;
67597;SDS011;62026;39.230;9.122;2022-12-29T17:25:36;19.45;;;11.13;;
67597;SDS011;62026;39.230;9.122;2022-12-29T17:28:10;25.73;;;13.35;;
67597;SDS011;62026;39.230;9.122;2022-12-29T17:30:52;27.23;;;12.00;;
67597;SDS011;62026;39.230;9.122;2022-12-29T17:33:27;23.17;;;11.38;;
67597;SDS011;62026;39.230;9.122;2022-12-29T17:36:00;17.00;;;10.90;;
67597;SDS011;62026;39.230;9.122;2022-12-29T17:38:30;23.10;;;11.93;;
67597;SDS011;62026;39.230;9.122;2022-12-29T17:40:59;22.75;;;13.48;;
67597;SDS011;62026;39.230;9.122;2022-12-29T17:43:25;25.65;;;14.02;;
67597;SDS011;62026;39.230;9.122;2022-12-29T17:45:55;30.60;;;14.93;;
67597;SDS011;62026;39.230;9.122;2022-12-29T17:48:23;30.17;;;17.27;;
67597;SDS011;62026;39.230;9.122;2022-12-29T17:50:50;37.63;;;19.25;;
67597;SDS011;62026;39.230;9.122;2022-12-29T17:53:19;42.95;;;21.85;;
67597;SDS011;62026;39.230;9.122;2022-12-29T17:55:52;42.10;;;22.27;;
67597;SDS011;62026;39.230;9.122;2022-12-29T17:58:25;48.05;;;26.48;;
67597;SDS011;62026;39.230;9.122;2022-12-29T18:00:55;46.13;;;26.52;;